sensor_id;sensor_type;location;lat;lon;timestamp;temperature;humidity
46816;DHT22;32787;53.316;8.670;2024-01-15T00:02:09;1.30;93.00
46816;DHT22;32787;53.316;8.670;2024-01-15T00:04:41;1.40;93.00
46816;DHT22;32787;53.316;8.670;2024-01-15T00:07:07;1.40;93.00
46816;DHT22;32787;53.316;8.670;2024-01-15T00:09:33;1.40;92.90
46816;DHT22;32787;53.316;8.670;2024-01-15T00:12:00;1.40;92.80
46816;DHT22;32787;53.316;8.670;2024-01-15T00:14:26;1.50;92.40
46816;DHT22;32787;53.316;8.670;2024-01-15T00:16:52;1.50;92.40
46816;DHT22;32787;53.316;8.670;2024-01-15T00:19:24;1.50;92.20
46816;DHT22;32787;53.316;8.670;2024-01-15T00:21:50;1.50;92.10
46816;DHT22;32787;53.316;8.670;2024-01-15T00:24:16;1.40;92.30
46816;DHT22;32787;53.316;8.670;2024-01-15T00:26:42;1.40;92.30
46816;DHT22;32787;53.316;8.670;2024-01-15T00:29:08;1.50;92.60
46816;DHT22;32787;53.316;8.670;2024-01-15T00:31:34;1.60;92.60
46816;DHT22;32787;53.316;8.670;2024-01-15T00:34:00;1.60;92.80
46816;DHT22;32787;53.316;8.670;2024-01-15T00:36:26;1.50;93.00
46816;DHT22;32787;53.316;8.670;2024-01-15T00:38:52;1.40;93.30
46816;DHT22;32787;53.316;8.670;2024-01-15T00:41:18;1.40;93.70
46816;DHT22;32787;53.316;8.670;2024-01-15T00:43:47;1.40;93.90
46816;DHT22;32787;53.316;8.670;2024-01-15T00:46:14;1.40;94.20
46816;DHT22;32787;53.316;8.670;2024-01-15T00:48:40;1.40;94.10
46816;DHT22;32787;53.316;8.670;2024-01-15T00:51:06;1.40;94.30
46816;DHT22;32787;53.316;8.670;2024-01-15T00:53:32;1.40;94.30
46816;DHT22;32787;53.316;8.670;2024-01-15T00:55:57;1.40;94.40
46816;DHT22;32787;53.316;8.670;2024-01-15T00:58:23;1.30;94.40
46816;DHT22;32787;53.316;8.670;2024-01-15T01:00:49;1.40;94.50
46816;DHT22;32787;53.316;8.670;2024-01-15T01:03:15;1.40;94.50
46816;DHT22;32787;53.316;8.670;2024-01-15T01:05:41;1.40;94.50
46816;DHT22;32787;53.316;8.670;2024-01-15T01:08:06;1.40;94.50
46816;DHT22;32787;53.316;8.670;2024-01-15T01:10:32;1.50;94.50
46816;DHT22;32787;53.316;8.670;2024-01-15T01:12:57;1.40;94.40
46816;DHT22;32787;53.316;8.670;2024-01-15T01:15:23;1.30;94.40
46816;DHT22;32787;53.316;8.670;2024-01-15T01:17:50;1.30;94.60
46816;DHT22;32787;53.316;8.670;2024-01-15T01:20:16;1.30;94.70
46816;DHT22;32787;53.316;8.670;2024-01-15T01:22:41;1.40;94.90
46816;DHT22;32787;53.316;8.670;2024-01-15T01:25:07;1.40;94.90
46816;DHT22;32787;53.316;8.670;2024-01-15T01:27:35;1.40;94.90
46816;DHT22;32787;53.316;8.670;2024-01-15T01:30:01;1.40;94.90
46816;DHT22;32787;53.316;8.670;2024-01-15T01:32:27;1.50;95.00
46816;DHT22;32787;53.316;8.670;2024-01-15T01:34:53;1.50;94.90
46816;DHT22;32787;53.316;8.670;2024-01-15T01:37:18;1.50;94.90
46816;DHT22;32787;53.316;8.670;2024-01-15T01:39:44;1.40;94.80
46816;DHT22;32787;53.316;8.670;2024-01-15T01:42:11;1.40;94.80
46816;DHT22;32787;53.316;8.670;2024-01-15T01:44:37;1.40;94.80
46816;DHT22;32787;53.316;8.670;2024-01-15T01:47:03;1.40;94.80
46816;DHT22;32787;53.316;8.670;2024-01-15T01:49:30;1.40;94.90
46816;DHT22;32787;53.316;8.670;2024-01-15T01:52:00;1.40;94.90
46816;DHT22;32787;53.316;8.670;2024-01-15T01:54:28;1.40;94.90
46816;DHT22;32787;53.316;8.670;2024-01-15T01:56:54;1.40;95.00
46816;DHT22;32787;53.316;8.670;2024-01-15T01:59:21;1.40;94.80
46816;DHT22;32787;53.316;8.670;2024-01-15T02:01:49;1.40;95.10
46816;DHT22;32787;53.316;8.670;2024-01-15T02:04:15;1.40;95.10
46816;DHT22;32787;53.316;8.670;2024-01-15T02:06:41;1.50;95.10
46816;DHT22;32787;53.316;8.670;2024-01-15T02:09:08;1.40;95.00
46816;DHT22;32787;53.316;8.670;2024-01-15T02:11:35;1.40;95.10
46816;DHT22;32787;53.316;8.670;2024-01-15T02:14:01;1.50;95.10
46816;DHT22;32787;53.316;8.670;2024-01-15T02:16:27;1.40;95.10
46816;DHT22;32787;53.316;8.670;2024-01-15T02:18:53;1.40;95.10
46816;DHT22;32787;53.316;8.670;2024-01-15T02:21:19;1.40;95.30
46816;DHT22;32787;53.316;8.670;2024-01-15T02:23:44;1.30;95.30
46816;DHT22;32787;53.316;8.670;2024-01-15T02:26:10;1.30;95.40
46816;DHT22;32787;53.316;8.670;2024-01-15T02:28:36;1.30;95.40
46816;DHT22;32787;53.316;8.670;2024-01-15T02:31:02;1.40;95.50
46816;DHT22;32787;53.316;8.670;2024-01-15T02:33:27;1.40;95.50
46816;DHT22;32787;53.316;8.670;2024-01-15T02:35:53;1.50;95.50
46816;DHT22;32787;53.316;8.670;2024-01-15T02:38:19;1.60;95.50
46816;DHT22;32787;53.316;8.670;2024-01-15T02:40:45;1.70;95.50
46816;DHT22;32787;53.316;8.670;2024-01-15T02:43:11;1.70;95.40
46816;DHT22;32787;53.316;8.670;2024-01-15T02:45:37;1.80;95.30
46816;DHT22;32787;53.316;8.670;2024-01-15T02:48:03;1.70;95.30
46816;DHT22;32787;53.316;8.670;2024-01-15T02:50:28;1.70;95.20
46816;DHT22;32787;53.316;8.670;2024-01-15T02:52:54;1.60;95.20
46816;DHT22;32787;53.316;8.670;2024-01-15T02:55:20;1.70;95.20
46816;DHT22;32787;53.316;8.670;2024-01-15T02:57:45;1.70;95.30
46816;DHT22;32787;53.316;8.670;2024-01-15T03:00:11;1.80;95.30
46816;DHT22;32787;53.316;8.670;2024-01-15T03:02:38;1.80;95.10
46816;DHT22;32787;53.316;8.670;2024-01-15T03:05:09;1.70;95.10
46816;DHT22;32787;53.316;8.670;2024-01-15T03:07:35;1.80;95.00
46816;DHT22;32787;53.316;8.670;2024-01-15T03:10:01;1.90;94.90
46816;DHT22;32787;53.316;8.670;2024-01-15T03:12:26;1.80;94.70
46816;DHT22;32787;53.316;8.670;2024-01-15T03:14:52;1.90;94.70
46816;DHT22;32787;53.316;8.670;2024-01-15T03:17:18;1.90;94.60
46816;DHT22;32787;53.316;8.670;2024-01-15T03:19:43;1.80;94.20
46816;DHT22;32787;53.316;8.670;2024-01-15T03:22:09;1.70;94.20
46816;DHT22;32787;53.316;8.670;2024-01-15T03:24:35;1.70;94.40
46816;DHT22;32787;53.316;8.670;2024-01-15T03:27:02;1.70;94.40
46816;DHT22;32787;53.316;8.670;2024-01-15T03:29:27;1.70;94.40
46816;DHT22;32787;53.316;8.670;2024-01-15T03:31:53;1.60;94.40
46816;DHT22;32787;53.316;8.670;2024-01-15T03:34:19;1.40;94.40
46816;DHT22;32787;53.316;8.670;2024-01-15T03:36:45;1.40;94.60
46816;DHT22;32787;53.316;8.670;2024-01-15T03:39:10;1.50;94.60
46816;DHT22;32787;53.316;8.670;2024-01-15T03:41:36;1.40;94.60
46816;DHT22;32787;53.316;8.670;2024-01-15T03:44:02;1.40;94.80
46816;DHT22;32787;53.316;8.670;2024-01-15T03:46:28;1.50;94.80
46816;DHT22;32787;53.316;8.670;2024-01-15T03:48:53;1.50;94.80
46816;DHT22;32787;53.316;8.670;2024-01-15T03:51:19;1.50;94.70
46816;DHT22;32787;53.316;8.670;2024-01-15T03:53:45;1.50;94.70
46816;DHT22;32787;53.316;8.670;2024-01-15T03:56:11;1.50;94.70
46816;DHT22;32787;53.316;8.670;2024-01-15T03:58:37;1.60;94.80
46816;DHT22;32787;53.316;8.670;2024-01-15T04:01:03;1.50;94.80
46816;DHT22;32787;53.316;8.670;2024-01-15T04:03:29;1.60;94.70
46816;DHT22;32787;53.316;8.670;2024-01-15T04:05:54;1.60;94.70
46816;DHT22;32787;53.316;8.670;2024-01-15T04:08:20;1.60;94.70
46816;DHT22;32787;53.316;8.670;2024-01-15T04:10:46;1.50;94.80
46816;DHT22;32787;53.316;8.670;2024-01-15T04:13:11;1.50;94.80
46816;DHT22;32787;53.316;8.670;2024-01-15T04:15:37;1.50;94.80
46816;DHT22;32787;53.316;8.670;2024-01-15T04:18:03;1.50;94.90
46816;DHT22;32787;53.316;8.670;2024-01-15T04:20:29;1.60;94.90
46816;DHT22;32787;53.316;8.670;2024-01-15T04:22:54;1.60;94.90
46816;DHT22;32787;53.316;8.670;2024-01-15T04:25:20;1.60;94.90
46816;DHT22;32787;53.316;8.670;2024-01-15T04:27:46;1.60;95.00
46816;DHT22;32787;53.316;8.670;2024-01-15T04:30:12;1.60;94.90
46816;DHT22;32787;53.316;8.670;2024-01-15T04:32:38;1.60;94.90
46816;DHT22;32787;53.316;8.670;2024-01-15T04:35:04;1.60;94.90
46816;DHT22;32787;53.316;8.670;2024-01-15T04:37:29;1.60;94.90
46816;DHT22;32787;53.316;8.670;2024-01-15T04:39:55;1.70;94.80
46816;DHT22;32787;53.316;8.670;2024-01-15T04:42:22;1.70;94.70
46816;DHT22;32787;53.316;8.670;2024-01-15T04:44:49;1.60;94.50
46816;DHT22;32787;53.316;8.670;2024-01-15T04:47:14;1.70;94.50
46816;DHT22;32787;53.316;8.670;2024-01-15T04:49:40;1.60;94.60
46816;DHT22;32787;53.316;8.670;2024-01-15T04:52:06;1.50;94.40
46816;DHT22;32787;53.316;8.670;2024-01-15T04:54:31;1.70;94.60
46816;DHT22;32787;53.316;8.670;2024-01-15T04:56:57;1.60;94.50
46816;DHT22;32787;53.316;8.670;2024-01-15T04:59:23;1.70;94.50
46816;DHT22;32787;53.316;8.670;2024-01-15T05:01:49;1.70;94.50
46816;DHT22;32787;53.316;8.670;2024-01-15T05:04:15;1.60;94.40
46816;DHT22;32787;53.316;8.670;2024-01-15T05:06:40;1.60;94.40
46816;DHT22;32787;53.316;8.670;2024-01-15T05:09:06;1.60;94.40
46816;DHT22;32787;53.316;8.670;2024-01-15T05:11:32;1.60;94.50
46816;DHT22;32787;53.316;8.670;2024-01-15T05:13:58;1.60;94.40
46816;DHT22;32787;53.316;8.670;2024-01-15T05:16:23;1.60;94.30
46816;DHT22;32787;53.316;8.670;2024-01-15T05:18:49;1.70;94.40
46816;DHT22;32787;53.316;8.670;2024-01-15T05:21:15;1.70;94.30
46816;DHT22;32787;53.316;8.670;2024-01-15T05:23:40;1.60;94.30
46816;DHT22;32787;53.316;8.670;2024-01-15T05:26:06;1.60;94.20
46816;DHT22;32787;53.316;8.670;2024-01-15T05:28:34;1.60;94.20
46816;DHT22;32787;53.316;8.670;2024-01-15T05:31:00;1.50;94.20
46816;DHT22;32787;53.316;8.670;2024-01-15T05:33:25;1.50;94.40
46816;DHT22;32787;53.316;8.670;2024-01-15T05:35:51;1.40;94.30
46816;DHT22;32787;53.316;8.670;2024-01-15T05:38:17;1.40;94.60
46816;DHT22;32787;53.316;8.670;2024-01-15T05:40:43;1.40;94.70
46816;DHT22;32787;53.316;8.670;2024-01-15T05:43:08;1.40;94.70
46816;DHT22;32787;53.316;8.670;2024-01-15T05:45:34;1.40;94.80
46816;DHT22;32787;53.316;8.670;2024-01-15T05:48:01;1.40;94.80
46816;DHT22;32787;53.316;8.670;2024-01-15T05:50:26;1.50;94.80
46816;DHT22;32787;53.316;8.670;2024-01-15T05:52:52;1.60;94.90
46816;DHT22;32787;53.316;8.670;2024-01-15T05:55:18;1.70;94.80
46816;DHT22;32787;53.316;8.670;2024-01-15T05:57:44;1.70;94.60
46816;DHT22;32787;53.316;8.670;2024-01-15T06:00:11;1.60;94.60
46816;DHT22;32787;53.316;8.670;2024-01-15T06:02:40;1.50;94.40
46816;DHT22;32787;53.316;8.670;2024-01-15T06:05:06;1.60;94.60
46816;DHT22;32787;53.316;8.670;2024-01-15T06:07:34;1.60;94.50
46816;DHT22;32787;53.316;8.670;2024-01-15T06:10:00;1.60;94.40
46816;DHT22;32787;53.316;8.670;2024-01-15T06:12:26;1.70;94.40
46816;DHT22;32787;53.316;8.670;2024-01-15T06:14:53;1.70;94.50
46816;DHT22;32787;53.316;8.670;2024-01-15T06:17:19;1.70;94.40
46816;DHT22;32787;53.316;8.670;2024-01-15T06:19:44;1.70;94.30
46816;DHT22;32787;53.316;8.670;2024-01-15T06:22:10;1.70;94.30
46816;DHT22;32787;53.316;8.670;2024-01-15T06:24:36;1.70;94.30
46816;DHT22;32787;53.316;8.670;2024-01-15T06:27:01;1.60;94.30
46816;DHT22;32787;53.316;8.670;2024-01-15T06:29:28;1.60;94.40
46816;DHT22;32787;53.316;8.670;2024-01-15T06:31:54;1.50;94.40
46816;DHT22;32787;53.316;8.670;2024-01-15T06:34:19;1.50;94.50
46816;DHT22;32787;53.316;8.670;2024-01-15T06:36:45;1.60;94.50
46816;DHT22;32787;53.316;8.670;2024-01-15T06:39:11;1.60;94.30
46816;DHT22;32787;53.316;8.670;2024-01-15T06:41:36;1.50;94.20
46816;DHT22;32787;53.316;8.670;2024-01-15T06:44:12;1.50;94.20
46816;DHT22;32787;53.316;8.670;2024-01-15T06:46:44;1.50;94.30
46816;DHT22;32787;53.316;8.670;2024-01-15T06:49:11;1.40;94.40
46816;DHT22;32787;53.316;8.670;2024-01-15T06:51:37;1.40;94.50
46816;DHT22;32787;53.316;8.670;2024-01-15T06:54:02;1.40;94.60
46816;DHT22;32787;53.316;8.670;2024-01-15T06:56:28;1.40;94.60
46816;DHT22;32787;53.316;8.670;2024-01-15T06:58:54;1.40;94.70
46816;DHT22;32787;53.316;8.670;2024-01-15T07:01:19;1.40;94.80
46816;DHT22;32787;53.316;8.670;2024-01-15T07:03:45;1.40;94.80
46816;DHT22;32787;53.316;8.670;2024-01-15T07:06:11;1.40;94.80
46816;DHT22;32787;53.316;8.670;2024-01-15T07:08:39;1.40;94.80
46816;DHT22;32787;53.316;8.670;2024-01-15T07:11:05;1.40;94.80
46816;DHT22;32787;53.316;8.670;2024-01-15T07:13:31;1.40;94.80
46816;DHT22;32787;53.316;8.670;2024-01-15T07:15:57;1.50;94.90
46816;DHT22;32787;53.316;8.670;2024-01-15T07:18:23;1.30;94.80
46816;DHT22;32787;53.316;8.670;2024-01-15T07:20:49;1.30;94.80
46816;DHT22;32787;53.316;8.670;2024-01-15T07:23:14;1.20;94.90
46816;DHT22;32787;53.316;8.670;2024-01-15T07:25:40;1.30;94.90
46816;DHT22;32787;53.316;8.670;2024-01-15T07:28:06;1.30;95.10
46816;DHT22;32787;53.316;8.670;2024-01-15T07:30:31;1.30;95.20
46816;DHT22;32787;53.316;8.670;2024-01-15T07:32:57;1.30;95.20
46816;DHT22;32787;53.316;8.670;2024-01-15T07:35:23;1.30;95.20
46816;DHT22;32787;53.316;8.670;2024-01-15T07:37:48;1.30;95.30
46816;DHT22;32787;53.316;8.670;2024-01-15T07:40:14;1.30;95.30
46816;DHT22;32787;53.316;8.670;2024-01-15T07:42:40;1.30;95.30
46816;DHT22;32787;53.316;8.670;2024-01-15T07:45:08;1.40;95.20
46816;DHT22;32787;53.316;8.670;2024-01-15T07:47:34;1.40;95.20
46816;DHT22;32787;53.316;8.670;2024-01-15T07:49:59;1.40;95.20
46816;DHT22;32787;53.316;8.670;2024-01-15T07:52:25;1.50;95.10
46816;DHT22;32787;53.316;8.670;2024-01-15T07:54:51;1.50;95.10
46816;DHT22;32787;53.316;8.670;2024-01-15T07:57:16;1.50;94.90
46816;DHT22;32787;53.316;8.670;2024-01-15T07:59:42;1.40;95.00
46816;DHT22;32787;53.316;8.670;2024-01-15T08:02:07;1.30;95.00
46816;DHT22;32787;53.316;8.670;2024-01-15T08:04:33;1.30;95.10
46816;DHT22;32787;53.316;8.670;2024-01-15T08:06:59;1.40;95.20
46816;DHT22;32787;53.316;8.670;2024-01-15T08:09:24;1.30;95.10
46816;DHT22;32787;53.316;8.670;2024-01-15T08:11:50;1.30;95.20
46816;DHT22;32787;53.316;8.670;2024-01-15T08:14:16;1.40;95.10
46816;DHT22;32787;53.316;8.670;2024-01-15T08:16:41;1.40;95.10
46816;DHT22;32787;53.316;8.670;2024-01-15T08:19:09;1.50;95.10
46816;DHT22;32787;53.316;8.670;2024-01-15T08:21:34;1.40;95.10
46816;DHT22;32787;53.316;8.670;2024-01-15T08:24:01;1.50;94.90
46816;DHT22;32787;53.316;8.670;2024-01-15T08:26:30;1.50;94.90
46816;DHT22;32787;53.316;8.670;2024-01-15T08:28:57;1.40;94.80
46816;DHT22;32787;53.316;8.670;2024-01-15T08:31:23;1.50;94.80
46816;DHT22;32787;53.316;8.670;2024-01-15T08:33:49;1.40;94.70
46816;DHT22;32787;53.316;8.670;2024-01-15T08:36:14;1.40;94.50
46816;DHT22;32787;53.316;8.670;2024-01-15T08:38:40;1.40;94.90
46816;DHT22;32787;53.316;8.670;2024-01-15T08:41:06;1.40;94.80
46816;DHT22;32787;53.316;8.670;2024-01-15T08:43:34;1.40;94.60
46816;DHT22;32787;53.316;8.670;2024-01-15T08:45:59;1.40;94.70
46816;DHT22;32787;53.316;8.670;2024-01-15T08:48:26;1.40;94.80
46816;DHT22;32787;53.316;8.670;2024-01-15T08:50:55;1.40;94.80
46816;DHT22;32787;53.316;8.670;2024-01-15T08:53:22;1.50;94.80
46816;DHT22;32787;53.316;8.670;2024-01-15T08:55:48;1.40;94.80
46816;DHT22;32787;53.316;8.670;2024-01-15T08:58:13;1.40;94.70
46816;DHT22;32787;53.316;8.670;2024-01-15T09:00:39;1.40;94.70
46816;DHT22;32787;53.316;8.670;2024-01-15T09:03:05;1.30;94.70
46816;DHT22;32787;53.316;8.670;2024-01-15T09:05:31;1.30;94.90
46816;DHT22;32787;53.316;8.670;2024-01-15T09:07:56;1.40;94.90
46816;DHT22;32787;53.316;8.670;2024-01-15T09:10:22;1.30;94.80
46816;DHT22;32787;53.316;8.670;2024-01-15T09:12:48;1.30;94.80
46816;DHT22;32787;53.316;8.670;2024-01-15T09:15:14;1.30;94.90
46816;DHT22;32787;53.316;8.670;2024-01-15T09:17:40;1.30;94.90
46816;DHT22;32787;53.316;8.670;2024-01-15T09:20:08;1.30;94.80
46816;DHT22;32787;53.316;8.670;2024-01-15T09:22:35;1.40;94.70
46816;DHT22;32787;53.316;8.670;2024-01-15T09:25:01;1.40;94.70
46816;DHT22;32787;53.316;8.670;2024-01-15T09:27:26;1.40;94.60
46816;DHT22;32787;53.316;8.670;2024-01-15T09:29:55;1.50;94.60
46816;DHT22;32787;53.316;8.670;2024-01-15T09:32:21;1.60;94.50
46816;DHT22;32787;53.316;8.670;2024-01-15T09:34:47;1.60;94.50
46816;DHT22;32787;53.316;8.670;2024-01-15T09:37:14;1.60;94.40
46816;DHT22;32787;53.316;8.670;2024-01-15T09:39:40;1.50;94.30
46816;DHT22;32787;53.316;8.670;2024-01-15T09:42:06;1.50;94.40
46816;DHT22;32787;53.316;8.670;2024-01-15T09:44:32;1.60;94.40
46816;DHT22;32787;53.316;8.670;2024-01-15T09:46:58;1.60;94.40
46816;DHT22;32787;53.316;8.670;2024-01-15T09:49:25;1.70;94.30
46816;DHT22;32787;53.316;8.670;2024-01-15T09:51:50;1.70;94.30
46816;DHT22;32787;53.316;8.670;2024-01-15T09:54:16;1.70;94.20
46816;DHT22;32787;53.316;8.670;2024-01-15T09:56:51;1.80;94.30
46816;DHT22;32787;53.316;8.670;2024-01-15T09:59:18;1.80;94.30
46816;DHT22;32787;53.316;8.670;2024-01-15T10:01:45;1.90;94.30
46816;DHT22;32787;53.316;8.670;2024-01-15T10:04:11;1.80;94.10
46816;DHT22;32787;53.316;8.670;2024-01-15T10:06:44;1.80;94.10
46816;DHT22;32787;53.316;8.670;2024-01-15T10:09:13;1.90;94.10
46816;DHT22;32787;53.316;8.670;2024-01-15T10:11:42;1.90;94.00
46816;DHT22;32787;53.316;8.670;2024-01-15T10:14:09;1.90;94.10
46816;DHT22;32787;53.316;8.670;2024-01-15T10:16:38;1.80;94.00
46816;DHT22;32787;53.316;8.670;2024-01-15T10:19:04;1.70;94.00
46816;DHT22;32787;53.316;8.670;2024-01-15T10:21:34;1.80;94.00
46816;DHT22;32787;53.316;8.670;2024-01-15T10:24:01;1.70;94.00
46816;DHT22;32787;53.316;8.670;2024-01-15T10:26:28;1.70;94.00
46816;DHT22;32787;53.316;8.670;2024-01-15T10:28:54;1.80;94.10
46816;DHT22;32787;53.316;8.670;2024-01-15T10:31:20;1.80;94.00
46816;DHT22;32787;53.316;8.670;2024-01-15T10:33:50;1.70;93.90
46816;DHT22;32787;53.316;8.670;2024-01-15T10:36:17;1.70;94.00
46816;DHT22;32787;53.316;8.670;2024-01-15T10:38:43;1.80;94.00
46816;DHT22;32787;53.316;8.670;2024-01-15T10:41:09;1.80;93.90
46816;DHT22;32787;53.316;8.670;2024-01-15T10:43:35;1.70;93.80
46816;DHT22;32787;53.316;8.670;2024-01-15T10:46:01;1.60;93.80
46816;DHT22;32787;53.316;8.670;2024-01-15T10:48:27;1.60;94.00
46816;DHT22;32787;53.316;8.670;2024-01-15T10:50:57;1.60;94.10
46816;DHT22;32787;53.316;8.670;2024-01-15T10:53:23;1.50;94.10
46816;DHT22;32787;53.316;8.670;2024-01-15T10:55:50;1.40;94.20
46816;DHT22;32787;53.316;8.670;2024-01-15T10:58:18;1.40;94.10
46816;DHT22;32787;53.316;8.670;2024-01-15T11:00:44;1.40;94.10
46816;DHT22;32787;53.316;8.670;2024-01-15T11:03:10;1.20;94.40
46816;DHT22;32787;53.316;8.670;2024-01-15T11:05:43;1.20;94.50
46816;DHT22;32787;53.316;8.670;2024-01-15T11:08:09;1.20;94.70
46816;DHT22;32787;53.316;8.670;2024-01-15T11:10:44;1.20;94.70
46816;DHT22;32787;53.316;8.670;2024-01-15T11:16:17;1.10;95.00
46816;DHT22;32787;53.316;8.670;2024-01-15T11:19:09;1.20;95.10
46816;DHT22;32787;53.316;8.670;2024-01-15T11:21:42;1.10;95.20
46816;DHT22;32787;53.316;8.670;2024-01-15T11:24:08;1.30;95.20
46816;DHT22;32787;53.316;8.670;2024-01-15T11:26:46;1.40;95.20
46816;DHT22;32787;53.316;8.670;2024-01-15T11:29:32;1.30;95.10
46816;DHT22;32787;53.316;8.670;2024-01-15T11:32:09;1.40;95.10
46816;DHT22;32787;53.316;8.670;2024-01-15T11:34:54;1.30;95.10
46816;DHT22;32787;53.316;8.670;2024-01-15T11:37:24;1.20;94.90
46816;DHT22;32787;53.316;8.670;2024-01-15T11:39:54;1.10;94.90
46816;DHT22;32787;53.316;8.670;2024-01-15T11:42:21;1.00;95.00
46816;DHT22;32787;53.316;8.670;2024-01-15T11:44:47;1.00;95.10
46816;DHT22;32787;53.316;8.670;2024-01-15T11:47:13;1.00;95.20
46816;DHT22;32787;53.316;8.670;2024-01-15T11:50:03;0.90;95.20
46816;DHT22;32787;53.316;8.670;2024-01-15T11:52:36;1.00;95.30
46816;DHT22;32787;53.316;8.670;2024-01-15T11:55:12;1.10;95.30
46816;DHT22;32787;53.316;8.670;2024-01-15T11:57:46;1.20;95.30
46816;DHT22;32787;53.316;8.670;2024-01-15T12:00:15;1.20;95.30
46816;DHT22;32787;53.316;8.670;2024-01-15T12:02:45;1.20;95.30
46816;DHT22;32787;53.316;8.670;2024-01-15T12:05:16;1.20;95.30
46816;DHT22;32787;53.316;8.670;2024-01-15T12:07:43;1.30;95.30
46816;DHT22;32787;53.316;8.670;2024-01-15T12:10:16;1.50;95.30
46816;DHT22;32787;53.316;8.670;2024-01-15T12:15:30;1.60;94.90
46816;DHT22;32787;53.316;8.670;2024-01-15T12:17:58;1.70;95.10
46816;DHT22;32787;53.316;8.670;2024-01-15T12:20:28;1.70;95.00
46816;DHT22;32787;53.316;8.670;2024-01-15T12:22:54;1.80;95.00
46816;DHT22;32787;53.316;8.670;2024-01-15T12:25:23;1.90;95.00
46816;DHT22;32787;53.316;8.670;2024-01-15T12:27:49;1.90;94.80
46816;DHT22;32787;53.316;8.670;2024-01-15T12:30:15;1.80;94.60
46816;DHT22;32787;53.316;8.670;2024-01-15T12:32:42;1.70;94.60
46816;DHT22;32787;53.316;8.670;2024-01-15T12:35:08;1.60;94.60
46816;DHT22;32787;53.316;8.670;2024-01-15T12:37:40;1.60;94.70
46816;DHT22;32787;53.316;8.670;2024-01-15T12:40:08;1.40;94.60
46816;DHT22;32787;53.316;8.670;2024-01-15T12:42:36;1.30;94.80
46816;DHT22;32787;53.316;8.670;2024-01-15T12:45:03;1.30;94.90
46816;DHT22;32787;53.316;8.670;2024-01-15T12:47:30;1.10;94.80
46816;DHT22;32787;53.316;8.670;2024-01-15T12:49:57;1.10;95.00
46816;DHT22;32787;53.316;8.670;2024-01-15T12:52:29;1.10;94.90
46816;DHT22;32787;53.316;8.670;2024-01-15T12:54:55;1.20;95.00
46816;DHT22;32787;53.316;8.670;2024-01-15T12:57:21;1.10;95.00
46816;DHT22;32787;53.316;8.670;2024-01-15T12:59:47;1.10;95.10
46816;DHT22;32787;53.316;8.670;2024-01-15T13:02:13;1.10;95.10
46816;DHT22;32787;53.316;8.670;2024-01-15T13:04:39;1.20;95.20
46816;DHT22;32787;53.316;8.670;2024-01-15T13:07:06;1.10;95.20
46816;DHT22;32787;53.316;8.670;2024-01-15T13:09:32;1.10;95.10
46816;DHT22;32787;53.316;8.670;2024-01-15T13:11:59;1.10;95.20
46816;DHT22;32787;53.316;8.670;2024-01-15T13:14:24;1.10;95.20
46816;DHT22;32787;53.316;8.670;2024-01-15T13:16:50;1.00;95.10
46816;DHT22;32787;53.316;8.670;2024-01-15T13:19:16;1.10;95.40
46816;DHT22;32787;53.316;8.670;2024-01-15T13:21:42;1.20;95.30
46816;DHT22;32787;53.316;8.670;2024-01-15T13:24:08;1.10;95.20
46816;DHT22;32787;53.316;8.670;2024-01-15T13:26:35;1.20;95.30
46816;DHT22;32787;53.316;8.670;2024-01-15T13:29:04;1.10;95.30
46816;DHT22;32787;53.316;8.670;2024-01-15T13:31:30;1.10;95.30
46816;DHT22;32787;53.316;8.670;2024-01-15T13:33:56;1.20;95.30
46816;DHT22;32787;53.316;8.670;2024-01-15T13:36:22;1.20;95.20
46816;DHT22;32787;53.316;8.670;2024-01-15T13:38:52;1.20;95.30
46816;DHT22;32787;53.316;8.670;2024-01-15T13:41:19;1.20;95.30
46816;DHT22;32787;53.316;8.670;2024-01-15T13:43:49;1.20;95.30
46816;DHT22;32787;53.316;8.670;2024-01-15T13:46:16;1.20;95.30
46816;DHT22;32787;53.316;8.670;2024-01-15T13:48:43;1.20;95.20
46816;DHT22;32787;53.316;8.670;2024-01-15T13:51:08;1.20;95.40
46816;DHT22;32787;53.316;8.670;2024-01-15T13:53:34;1.20;95.40
46816;DHT22;32787;53.316;8.670;2024-01-15T13:56:00;1.30;95.40
46816;DHT22;32787;53.316;8.670;2024-01-15T13:58:26;1.30;95.30
46816;DHT22;32787;53.316;8.670;2024-01-15T14:00:51;1.20;95.50
46816;DHT22;32787;53.316;8.670;2024-01-15T14:03:17;1.20;95.50
46816;DHT22;32787;53.316;8.670;2024-01-15T14:05:44;1.40;96.10
46816;DHT22;32787;53.316;8.670;2024-01-15T14:08:10;1.20;96.20
46816;DHT22;32787;53.316;8.670;2024-01-15T14:10:36;1.40;96.20
46816;DHT22;32787;53.316;8.670;2024-01-15T14:13:02;1.30;96.20
46816;DHT22;32787;53.316;8.670;2024-01-15T14:15:29;1.30;96.30
46816;DHT22;32787;53.316;8.670;2024-01-15T14:17:54;1.40;96.20
46816;DHT22;32787;53.316;8.670;2024-01-15T14:20:20;1.40;96.20
46816;DHT22;32787;53.316;8.670;2024-01-15T14:22:47;1.40;96.20
46816;DHT22;32787;53.316;8.670;2024-01-15T14:25:13;1.40;96.30
46816;DHT22;32787;53.316;8.670;2024-01-15T14:27:39;1.30;96.20
46816;DHT22;32787;53.316;8.670;2024-01-15T14:30:05;1.40;96.20
46816;DHT22;32787;53.316;8.670;2024-01-15T14:32:31;1.40;96.20
46816;DHT22;32787;53.316;8.670;2024-01-15T14:34:57;1.40;96.40
46816;DHT22;32787;53.316;8.670;2024-01-15T14:37:22;1.40;96.30
46816;DHT22;32787;53.316;8.670;2024-01-15T14:39:48;1.40;96.20
46816;DHT22;32787;53.316;8.670;2024-01-15T14:42:14;1.50;96.20
46816;DHT22;32787;53.316;8.670;2024-01-15T14:44:39;1.40;96.10
46816;DHT22;32787;53.316;8.670;2024-01-15T14:47:06;1.30;96.20
46816;DHT22;32787;53.316;8.670;2024-01-15T14:49:33;1.40;96.20
46816;DHT22;32787;53.316;8.670;2024-01-15T14:51:59;1.30;96.00
46816;DHT22;32787;53.316;8.670;2024-01-15T14:54:25;1.20;96.20
46816;DHT22;32787;53.316;8.670;2024-01-15T14:56:51;1.30;96.20
46816;DHT22;32787;53.316;8.670;2024-01-15T14:59:17;1.40;96.20
46816;DHT22;32787;53.316;8.670;2024-01-15T15:01:43;1.40;96.20
46816;DHT22;32787;53.316;8.670;2024-01-15T15:04:08;1.50;96.20
46816;DHT22;32787;53.316;8.670;2024-01-15T15:06:36;1.40;96.20
46816;DHT22;32787;53.316;8.670;2024-01-15T15:09:02;1.50;96.20
46816;DHT22;32787;53.316;8.670;2024-01-15T15:11:34;1.50;96.00
46816;DHT22;32787;53.316;8.670;2024-01-15T15:14:00;1.40;96.00
46816;DHT22;32787;53.316;8.670;2024-01-15T15:16:26;1.30;96.00
46816;DHT22;32787;53.316;8.670;2024-01-15T15:18:53;1.40;96.20
46816;DHT22;32787;53.316;8.670;2024-01-15T15:21:20;1.40;96.10
46816;DHT22;32787;53.316;8.670;2024-01-15T15:23:45;1.20;96.00
46816;DHT22;32787;53.316;8.670;2024-01-15T15:26:13;1.30;96.20
46816;DHT22;32787;53.316;8.670;2024-01-15T15:28:38;1.20;96.20
46816;DHT22;32787;53.316;8.670;2024-01-15T15:31:06;1.30;96.30
46816;DHT22;32787;53.316;8.670;2024-01-15T15:33:36;1.00;96.00
46816;DHT22;32787;53.316;8.670;2024-01-15T15:36:02;0.80;96.10
46816;DHT22;32787;53.316;8.670;2024-01-15T15:38:33;0.70;96.30
46816;DHT22;32787;53.316;8.670;2024-01-15T15:40:59;0.80;96.50
46816;DHT22;32787;53.316;8.670;2024-01-15T15:43:26;0.70;96.60
46816;DHT22;32787;53.316;8.670;2024-01-15T15:45:51;0.90;96.70
46816;DHT22;32787;53.316;8.670;2024-01-15T15:48:17;0.70;96.60